KLVS

Las Vegas Municipal Airport

Las Vegas, New Mexico, USA
KLVS 190543Z 1906/2006 24006KT 1SM BR OVC008 TEMPO 1906/1909 1/2SM FG VV002 FM190900 VRB05KT 6SM BR BKN015 FM191200 03005KT P6SM SKC FM192000 06011KT P6SM SKC
Issued Valid From Valid To
Oct-19 @ 05:43 UTC
(3 hours ago)
Oct-19 @ 06:00 UTC
(3 hours ago)
Oct-20 @ 06:00 UTC
(in 21 hours)
Expired Click to View Oct-19 @ 06:00 to Oct-19 @ 09:00
KLVS 190543Z 1906/2006 24006KT 1SM BR OVC008
Wind Visibility Clouds Conditions
240° at 6 knots 1 miles
  • Overcast at 800' AGL
  • Mist
Expired Click to View Oct-19 @ 06:00 to Oct-19 @ 09:00
TEMPO 1906/1909 1/2SM FG VV002
Visibility Clouds Conditions
1/2 miles
  • Vertical visibility at 200' AGL
  • Fog
From Oct-19 @ 09:00 to Oct-19 @ 12:00
FM190900 VRB05KT 6SM BR BKN015
Wind Visibility Clouds Conditions
Variable at 5 knots 6 miles
  • Broken at 1,500' AGL
  • Mist
From Oct-19 @ 12:00 to Oct-19 @ 20:00
FM191200 03005KT P6SM SKC
Wind Visibility Clouds
30° at 5 knots Greater than 6 miles
  • Clear skies
From Oct-19 @ 20:00 to Oct-20 @ 06:00
FM192000 06011KT P6SM SKC
Wind Visibility Clouds
60° at 11 knots Greater than 6 miles
  • Clear skies
KLVS 190543Z 1906/2006 24006KT 1SM BR OVC008 TEMPO 1906/1909 1/2SM FG VV002 FM190900 VRB05KT 6SM BR BKN015 FM191200 03005KT P6SM SKC FM192000 06011KT P6SM SKC
Issued Oct-19 @ 05:43 UTC
(3 hours ago)
Valid From Oct-19 @ 06:00 UTC
(3 hours ago)
Valid To Oct-20 @ 06:00 UTC
(in 21 hours)
Oct-19 @ 06:00 - Oct-19 @ 09:00
Wind Visibility
240° at 6 knots 1 miles
Clouds
  • Overcast at 800' AGL
Conditions
  • Mist
Oct-19 @ 06:00 - Oct-19 @ 09:00
Clouds
  • Vertical visibility at 200' AGL
Conditions
  • Fog
From Oct-19 @ 09:00 - Oct-19 @ 12:00
Wind Visibility
Variable at 5 knots 6 miles
Clouds
  • Broken at 1,500' AGL
Conditions
  • Mist
From Oct-19 @ 12:00 - Oct-19 @ 20:00
Wind Visibility
30° at 5 knots Greater than 6 miles
Clouds
  • Clear skies
From Oct-19 @ 20:00 - Oct-20 @ 06:00
Wind Visibility
60° at 11 knots Greater than 6 miles
Clouds
  • Clear skies